sensor_id;sensor_type;location;lat;lon;timestamp;P1;durP1;ratioP1;P2;durP2;ratioP2
10719;SDS011;5411;58.386;15.560;2024-01-06T00:01:34;3.97;;;2.78;;
10719;SDS011;5411;58.386;15.560;2024-01-06T00:04:06;2.72;;;2.53;;
10719;SDS011;5411;58.386;15.560;2024-01-06T00:06:35;4.38;;;2.67;;
10719;SDS011;5411;58.386;15.560;2024-01-06T00:09:05;2.80;;;2.60;;
10719;SDS011;5411;58.386;15.560;2024-01-06T00:11:34;2.90;;;2.70;;
10719;SDS011;5411;58.386;15.560;2024-01-06T00:14:02;4.35;;;2.83;;
10719;SDS011;5411;58.386;15.560;2024-01-06T00:16:31;3.03;;;2.80;;
10719;SDS011;5411;58.386;15.560;2024-01-06T00:19:00;4.40;;;2.90;;
10719;SDS011;5411;58.386;15.560;2024-01-06T00:21:30;2.80;;;2.60;;
10719;SDS011;5411;58.386;15.560;2024-01-06T00:23:59;2.75;;;2.55;;
10719;SDS011;5411;58.386;15.560;2024-01-06T00:26:34;2.47;;;2.10;;
10719;SDS011;5411;58.386;15.560;2024-01-06T00:29:02;7.07;;;3.22;;
10719;SDS011;5411;58.386;15.560;2024-01-06T00:31:30;3.63;;;2.35;;
10719;SDS011;5411;58.386;15.560;2024-01-06T00:33:59;2.58;;;2.28;;
10719;SDS011;5411;58.386;15.560;2024-01-06T00:36:28;2.90;;;2.65;;
10719;SDS011;5411;58.386;15.560;2024-01-06T00:38:56;3.05;;;2.75;;
10719;SDS011;5411;58.386;15.560;2024-01-06T00:41:24;8.35;;;2.60;;
10719;SDS011;5411;58.386;15.560;2024-01-06T00:43:54;6.25;;;3.13;;
10719;SDS011;5411;58.386;15.560;2024-01-06T00:46:23;6.38;;;4.18;;
10719;SDS011;5411;58.386;15.560;2024-01-06T00:48:51;1.85;;;1.75;;
10719;SDS011;5411;58.386;15.560;2024-01-06T00:51:20;6.40;;;3.65;;
10719;SDS011;5411;58.386;15.560;2024-01-06T00:53:49;3.65;;;3.35;;
10719;SDS011;5411;58.386;15.560;2024-01-06T00:56:17;4.40;;;2.70;;
10719;SDS011;5411;58.386;15.560;2024-01-06T00:58:46;2.50;;;2.33;;
10719;SDS011;5411;58.386;15.560;2024-01-06T01:01:16;2.22;;;2.08;;
10719;SDS011;5411;58.386;15.560;2024-01-06T01:03:45;4.15;;;3.25;;
10719;SDS011;5411;58.386;15.560;2024-01-06T01:06:13;3.67;;;3.20;;
10719;SDS011;5411;58.386;15.560;2024-01-06T01:08:42;2.05;;;1.88;;
10719;SDS011;5411;58.386;15.560;2024-01-06T01:11:10;4.95;;;2.60;;
10719;SDS011;5411;58.386;15.560;2024-01-06T01:13:39;3.75;;;2.42;;
10719;SDS011;5411;58.386;15.560;2024-01-06T01:16:08;4.05;;;1.92;;
10719;SDS011;5411;58.386;15.560;2024-01-06T01:18:37;2.38;;;2.22;;
10719;SDS011;5411;58.386;15.560;2024-01-06T01:21:06;3.17;;;2.55;;
10719;SDS011;5411;58.386;15.560;2024-01-06T01:23:35;3.85;;;3.55;;
10719;SDS011;5411;58.386;15.560;2024-01-06T01:26:03;2.78;;;2.58;;
10719;SDS011;5411;58.386;15.560;2024-01-06T01:28:33;6.63;;;3.97;;
10719;SDS011;5411;58.386;15.560;2024-01-06T01:31:01;3.15;;;2.83;;
10719;SDS011;5411;58.386;15.560;2024-01-06T01:33:30;5.47;;;2.72;;
10719;SDS011;5411;58.386;15.560;2024-01-06T01:36:01;4.43;;;2.72;;
10719;SDS011;5411;58.386;15.560;2024-01-06T01:38:29;2.30;;;2.20;;
10719;SDS011;5411;58.386;15.560;2024-01-06T01:40:57;2.65;;;2.45;;
10719;SDS011;5411;58.386;15.560;2024-01-06T01:43:26;3.05;;;2.70;;
10719;SDS011;5411;58.386;15.560;2024-01-06T01:45:55;3.80;;;3.10;;
10719;SDS011;5411;58.386;15.560;2024-01-06T01:48:24;2.88;;;2.70;;
10719;SDS011;5411;58.386;15.560;2024-01-06T01:50:53;4.30;;;3.10;;
10719;SDS011;5411;58.386;15.560;2024-01-06T01:53:24;4.90;;;3.28;;
10719;SDS011;5411;58.386;15.560;2024-01-06T01:55:53;2.85;;;2.63;;
10719;SDS011;5411;58.386;15.560;2024-01-06T01:58:22;4.10;;;3.65;;
10719;SDS011;5411;58.386;15.560;2024-01-06T02:00:50;2.53;;;2.33;;
10719;SDS011;5411;58.386;15.560;2024-01-06T02:03:19;3.40;;;3.20;;
10719;SDS011;5411;58.386;15.560;2024-01-06T02:05:50;5.45;;;3.53;;
10719;SDS011;5411;58.386;15.560;2024-01-06T02:08:18;4.00;;;3.67;;
10719;SDS011;5411;58.386;15.560;2024-01-06T02:10:48;4.30;;;2.55;;
10719;SDS011;5411;58.386;15.560;2024-01-06T02:13:17;2.88;;;2.17;;
10719;SDS011;5411;58.386;15.560;2024-01-06T02:15:45;3.22;;;2.97;;
10719;SDS011;5411;58.386;15.560;2024-01-06T02:18:14;3.33;;;2.78;;
10719;SDS011;5411;58.386;15.560;2024-01-06T02:20:43;2.90;;;2.70;;
10719;SDS011;5411;58.386;15.560;2024-01-06T02:23:13;3.97;;;2.55;;
10719;SDS011;5411;58.386;15.560;2024-01-06T02:25:41;5.20;;;3.15;;
10719;SDS011;5411;58.386;15.560;2024-01-06T02:28:10;3.53;;;2.83;;
10719;SDS011;5411;58.386;15.560;2024-01-06T02:30:39;2.35;;;2.10;;
10719;SDS011;5411;58.386;15.560;2024-01-06T02:33:07;5.40;;;3.35;;
10719;SDS011;5411;58.386;15.560;2024-01-06T02:35:36;4.10;;;2.97;;
10719;SDS011;5411;58.386;15.560;2024-01-06T02:38:06;3.25;;;2.85;;
10719;SDS011;5411;58.386;15.560;2024-01-06T02:40:36;4.57;;;3.03;;
10719;SDS011;5411;58.386;15.560;2024-01-06T02:43:05;3.67;;;2.90;;
10719;SDS011;5411;58.386;15.560;2024-01-06T02:45:35;6.07;;;3.13;;
10719;SDS011;5411;58.386;15.560;2024-01-06T02:48:04;2.40;;;2.20;;
10719;SDS011;5411;58.386;15.560;2024-01-06T02:50:33;4.28;;;3.20;;
10719;SDS011;5411;58.386;15.560;2024-01-06T02:53:01;4.68;;;3.42;;
10719;SDS011;5411;58.386;15.560;2024-01-06T02:55:29;4.32;;;2.92;;
10719;SDS011;5411;58.386;15.560;2024-01-06T02:57:59;6.88;;;3.00;;
10719;SDS011;5411;58.386;15.560;2024-01-06T03:00:28;2.53;;;2.40;;
10719;SDS011;5411;58.386;15.560;2024-01-06T03:02:56;7.07;;;3.17;;
10719;SDS011;5411;58.386;15.560;2024-01-06T03:05:24;3.88;;;2.78;;
10719;SDS011;5411;58.386;15.560;2024-01-06T03:07:53;3.83;;;2.90;;
10719;SDS011;5411;58.386;15.560;2024-01-06T03:10:22;5.18;;;3.30;;
10719;SDS011;5411;58.386;15.560;2024-01-06T03:12:50;3.58;;;2.50;;
10719;SDS011;5411;58.386;15.560;2024-01-06T03:15:20;6.20;;;3.40;;
10719;SDS011;5411;58.386;15.560;2024-01-06T03:17:49;6.63;;;2.78;;
10719;SDS011;5411;58.386;15.560;2024-01-06T03:20:18;3.00;;;2.72;;
10719;SDS011;5411;58.386;15.560;2024-01-06T03:22:46;4.63;;;2.67;;
10719;SDS011;5411;58.386;15.560;2024-01-06T03:25:15;4.70;;;3.13;;
10719;SDS011;5411;58.386;15.560;2024-01-06T03:27:43;4.18;;;2.83;;
10719;SDS011;5411;58.386;15.560;2024-01-06T03:30:12;2.63;;;2.45;;
10719;SDS011;5411;58.386;15.560;2024-01-06T03:32:43;2.67;;;2.47;;
10719;SDS011;5411;58.386;15.560;2024-01-06T03:35:11;2.92;;;2.45;;
10719;SDS011;5411;58.386;15.560;2024-01-06T03:37:39;2.90;;;2.60;;
10719;SDS011;5411;58.386;15.560;2024-01-06T03:40:09;3.67;;;2.63;;
10719;SDS011;5411;58.386;15.560;2024-01-06T03:42:38;3.58;;;3.00;;
10719;SDS011;5411;58.386;15.560;2024-01-06T03:45:07;3.22;;;3.03;;
10719;SDS011;5411;58.386;15.560;2024-01-06T03:47:38;3.15;;;2.85;;
10719;SDS011;5411;58.386;15.560;2024-01-06T03:50:09;4.38;;;2.40;;
10719;SDS011;5411;58.386;15.560;2024-01-06T03:52:37;3.05;;;2.85;;
10719;SDS011;5411;58.386;15.560;2024-01-06T03:55:09;3.03;;;2.83;;
10719;SDS011;5411;58.386;15.560;2024-01-06T03:57:37;2.70;;;2.55;;
10719;SDS011;5411;58.386;15.560;2024-01-06T04:00:06;2.50;;;2.40;;
10719;SDS011;5411;58.386;15.560;2024-01-06T04:02:35;2.88;;;2.78;;
10719;SDS011;5411;58.386;15.560;2024-01-06T04:05:04;6.72;;;2.65;;
10719;SDS011;5411;58.386;15.560;2024-01-06T04:07:34;3.13;;;2.60;;
10719;SDS011;5411;58.386;15.560;2024-01-06T04:10:03;2.90;;;2.70;;
10719;SDS011;5411;58.386;15.560;2024-01-06T04:12:32;8.50;;;3.28;;
10719;SDS011;5411;58.386;15.560;2024-01-06T04:15:00;3.70;;;2.60;;
10719;SDS011;5411;58.386;15.560;2024-01-06T04:17:29;2.88;;;2.67;;
10719;SDS011;5411;58.386;15.560;2024-01-06T04:19:57;1.98;;;1.88;;
10719;SDS011;5411;58.386;15.560;2024-01-06T04:22:25;2.85;;;2.60;;
10719;SDS011;5411;58.386;15.560;2024-01-06T04:24:55;2.50;;;2.35;;
10719;SDS011;5411;58.386;15.560;2024-01-06T04:27:24;3.58;;;2.40;;
10719;SDS011;5411;58.386;15.560;2024-01-06T04:29:52;3.10;;;2.80;;
10719;SDS011;5411;58.386;15.560;2024-01-06T04:32:20;2.15;;;1.98;;
10719;SDS011;5411;58.386;15.560;2024-01-06T04:34:49;1.67;;;1.55;;
10719;SDS011;5411;58.386;15.560;2024-01-06T04:37:18;4.38;;;2.83;;
10719;SDS011;5411;58.386;15.560;2024-01-06T04:39:46;2.83;;;2.25;;
10719;SDS011;5411;58.386;15.560;2024-01-06T04:42:16;2.05;;;1.95;;
10719;SDS011;5411;58.386;15.560;2024-01-06T04:44:46;4.80;;;2.47;;
10719;SDS011;5411;58.386;15.560;2024-01-06T04:47:14;1.55;;;1.52;;
10719;SDS011;5411;58.386;15.560;2024-01-06T04:49:43;3.47;;;2.58;;
10719;SDS011;5411;58.386;15.560;2024-01-06T04:52:11;2.63;;;2.08;;
10719;SDS011;5411;58.386;15.560;2024-01-06T04:54:40;4.05;;;2.38;;
10719;SDS011;5411;58.386;15.560;2024-01-06T04:57:08;2.42;;;2.22;;
10719;SDS011;5411;58.386;15.560;2024-01-06T04:59:39;2.35;;;2.25;;
10719;SDS011;5411;58.386;15.560;2024-01-06T05:02:07;2.70;;;2.50;;
10719;SDS011;5411;58.386;15.560;2024-01-06T05:04:36;2.47;;;1.98;;
10719;SDS011;5411;58.386;15.560;2024-01-06T05:07:04;3.10;;;2.00;;
10719;SDS011;5411;58.386;15.560;2024-01-06T05:09:32;4.13;;;2.85;;
10719;SDS011;5411;58.386;15.560;2024-01-06T05:12:01;2.50;;;2.30;;
10719;SDS011;5411;58.386;15.560;2024-01-06T05:14:29;2.80;;;2.35;;
10719;SDS011;5411;58.386;15.560;2024-01-06T05:17:00;3.65;;;3.05;;
10719;SDS011;5411;58.386;15.560;2024-01-06T05:19:28;2.42;;;2.22;;
10719;SDS011;5411;58.386;15.560;2024-01-06T05:21:57;5.57;;;2.60;;
10719;SDS011;5411;58.386;15.560;2024-01-06T05:24:26;4.72;;;2.92;;
10719;SDS011;5411;58.386;15.560;2024-01-06T05:26:55;3.60;;;2.05;;
10719;SDS011;5411;58.386;15.560;2024-01-06T05:29:23;2.75;;;2.00;;
10719;SDS011;5411;58.386;15.560;2024-01-06T05:31:52;3.35;;;2.80;;
10719;SDS011;5411;58.386;15.560;2024-01-06T05:34:22;5.55;;;2.60;;
10719;SDS011;5411;58.386;15.560;2024-01-06T05:36:51;2.92;;;2.72;;
10719;SDS011;5411;58.386;15.560;2024-01-06T05:39:19;1.58;;;1.58;;
10719;SDS011;5411;58.386;15.560;2024-01-06T05:41:48;2.22;;;2.05;;
10719;SDS011;5411;58.386;15.560;2024-01-06T05:44:16;2.55;;;2.35;;
10719;SDS011;5411;58.386;15.560;2024-01-06T05:46:45;5.75;;;2.88;;
10719;SDS011;5411;58.386;15.560;2024-01-06T05:49:13;4.38;;;2.17;;
10719;SDS011;5411;58.386;15.560;2024-01-06T05:51:45;2.70;;;2.35;;
10719;SDS011;5411;58.386;15.560;2024-01-06T05:54:14;2.85;;;2.15;;
10719;SDS011;5411;58.386;15.560;2024-01-06T05:56:43;2.10;;;1.90;;
10719;SDS011;5411;58.386;15.560;2024-01-06T05:59:11;4.03;;;2.38;;
10719;SDS011;5411;58.386;15.560;2024-01-06T06:01:40;2.80;;;2.60;;
10719;SDS011;5411;58.386;15.560;2024-01-06T06:04:10;2.72;;;2.53;;
10719;SDS011;5411;58.386;15.560;2024-01-06T06:06:39;3.08;;;2.38;;
10719;SDS011;5411;58.386;15.560;2024-01-06T06:09:09;2.97;;;2.75;;
10719;SDS011;5411;58.386;15.560;2024-01-06T06:11:39;2.13;;;1.95;;
10719;SDS011;5411;58.386;15.560;2024-01-06T06:14:07;3.30;;;2.13;;
10719;SDS011;5411;58.386;15.560;2024-01-06T06:16:36;3.35;;;2.08;;
10719;SDS011;5411;58.386;15.560;2024-01-06T06:19:04;4.35;;;2.35;;
10719;SDS011;5411;58.386;15.560;2024-01-06T06:21:34;3.20;;;2.88;;
10719;SDS011;5411;58.386;15.560;2024-01-06T06:24:03;1.80;;;1.70;;
10719;SDS011;5411;58.386;15.560;2024-01-06T06:26:34;2.42;;;2.30;;
10719;SDS011;5411;58.386;15.560;2024-01-06T06:29:06;2.13;;;2.03;;
10719;SDS011;5411;58.386;15.560;2024-01-06T06:31:34;2.13;;;2.03;;
10719;SDS011;5411;58.386;15.560;2024-01-06T06:34:03;2.63;;;2.42;;
10719;SDS011;5411;58.386;15.560;2024-01-06T06:36:34;3.20;;;2.88;;
10719;SDS011;5411;58.386;15.560;2024-01-06T06:39:03;10.57;;;3.35;;
10719;SDS011;5411;58.386;15.560;2024-01-06T06:41:32;2.45;;;2.35;;
10719;SDS011;5411;58.386;15.560;2024-01-06T06:44:01;2.58;;;2.22;;
10719;SDS011;5411;58.386;15.560;2024-01-06T06:46:30;3.50;;;2.97;;
10719;SDS011;5411;58.386;15.560;2024-01-06T06:49:02;2.33;;;2.00;;
10719;SDS011;5411;58.386;15.560;2024-01-06T06:51:30;2.22;;;2.13;;
10719;SDS011;5411;58.386;15.560;2024-01-06T06:53:59;3.22;;;1.73;;
10719;SDS011;5411;58.386;15.560;2024-01-06T06:56:29;3.05;;;2.42;;
10719;SDS011;5411;58.386;15.560;2024-01-06T06:58:59;2.92;;;2.55;;
10719;SDS011;5411;58.386;15.560;2024-01-06T07:01:28;3.38;;;2.10;;
10719;SDS011;5411;58.386;15.560;2024-01-06T07:04:00;2.10;;;1.90;;
10719;SDS011;5411;58.386;15.560;2024-01-06T07:06:28;1.88;;;1.77;;
10719;SDS011;5411;58.386;15.560;2024-01-06T07:08:57;3.05;;;2.17;;
10719;SDS011;5411;58.386;15.560;2024-01-06T07:11:26;2.35;;;2.22;;
10719;SDS011;5411;58.386;15.560;2024-01-06T07:13:55;2.45;;;2.28;;
10719;SDS011;5411;58.386;15.560;2024-01-06T07:16:25;2.78;;;2.58;;
10719;SDS011;5411;58.386;15.560;2024-01-06T07:18:53;2.45;;;2.35;;
10719;SDS011;5411;58.386;15.560;2024-01-06T07:21:21;3.05;;;2.13;;
10719;SDS011;5411;58.386;15.560;2024-01-06T07:23:51;2.58;;;2.35;;
10719;SDS011;5411;58.386;15.560;2024-01-06T07:26:19;3.80;;;2.40;;
10719;SDS011;5411;58.386;15.560;2024-01-06T07:28:48;2.15;;;2.03;;
10719;SDS011;5411;58.386;15.560;2024-01-06T07:31:16;6.20;;;2.63;;
10719;SDS011;5411;58.386;15.560;2024-01-06T07:33:46;2.53;;;2.30;;
10719;SDS011;5411;58.386;15.560;2024-01-06T07:36:15;1.70;;;1.65;;
10719;SDS011;5411;58.386;15.560;2024-01-06T07:38:44;2.25;;;1.92;;
10719;SDS011;5411;58.386;15.560;2024-01-06T07:41:13;3.42;;;2.22;;
10719;SDS011;5411;58.386;15.560;2024-01-06T07:43:41;4.63;;;1.98;;
10719;SDS011;5411;58.386;15.560;2024-01-06T07:46:10;4.40;;;2.88;;
10719;SDS011;5411;58.386;15.560;2024-01-06T07:48:41;1.98;;;1.88;;
10719;SDS011;5411;58.386;15.560;2024-01-06T07:51:11;3.13;;;2.63;;
10719;SDS011;5411;58.386;15.560;2024-01-06T07:53:40;2.97;;;2.72;;
10719;SDS011;5411;58.386;15.560;2024-01-06T07:56:08;2.90;;;2.63;;
10719;SDS011;5411;58.386;15.560;2024-01-06T07:58:37;2.50;;;2.30;;
10719;SDS011;5411;58.386;15.560;2024-01-06T08:01:05;2.67;;;2.58;;
10719;SDS011;5411;58.386;15.560;2024-01-06T08:03:34;2.28;;;2.17;;
10719;SDS011;5411;58.386;15.560;2024-01-06T08:06:03;4.30;;;2.63;;
10719;SDS011;5411;58.386;15.560;2024-01-06T08:08:34;3.78;;;2.58;;
10719;SDS011;5411;58.386;15.560;2024-01-06T08:11:02;3.03;;;2.80;;
10719;SDS011;5411;58.386;15.560;2024-01-06T08:13:31;3.65;;;2.88;;
10719;SDS011;5411;58.386;15.560;2024-01-06T08:15:59;3.70;;;2.85;;
10719;SDS011;5411;58.386;15.560;2024-01-06T08:18:28;4.90;;;2.85;;
10719;SDS011;5411;58.386;15.560;2024-01-06T08:20:59;2.90;;;2.15;;
10719;SDS011;5411;58.386;15.560;2024-01-06T08:23:27;2.40;;;2.25;;
10719;SDS011;5411;58.386;15.560;2024-01-06T08:25:58;2.72;;;2.53;;
10719;SDS011;5411;58.386;15.560;2024-01-06T08:28:27;3.97;;;3.53;;
10719;SDS011;5411;58.386;15.560;2024-01-06T08:30:56;9.23;;;5.35;;
10719;SDS011;5411;58.386;15.560;2024-01-06T08:33:25;2.90;;;2.58;;
10719;SDS011;5411;58.386;15.560;2024-01-06T08:35:53;2.83;;;2.63;;
10719;SDS011;5411;58.386;15.560;2024-01-06T08:38:22;3.90;;;2.88;;
10719;SDS011;5411;58.386;15.560;2024-01-06T08:40:51;5.65;;;2.75;;
10719;SDS011;5411;58.386;15.560;2024-01-06T08:43:21;3.97;;;2.28;;
10719;SDS011;5411;58.386;15.560;2024-01-06T08:45:50;3.22;;;3.03;;
10719;SDS011;5411;58.386;15.560;2024-01-06T08:48:18;4.82;;;2.85;;
10719;SDS011;5411;58.386;15.560;2024-01-06T08:50:48;4.95;;;2.92;;
10719;SDS011;5411;58.386;15.560;2024-01-06T08:53:17;6.28;;;3.47;;
10719;SDS011;5411;58.386;15.560;2024-01-06T08:55:46;2.75;;;2.55;;
10719;SDS011;5411;58.386;15.560;2024-01-06T08:58:14;2.97;;;2.53;;
10719;SDS011;5411;58.386;15.560;2024-01-06T09:00:46;2.60;;;2.40;;
10719;SDS011;5411;58.386;15.560;2024-01-06T09:03:15;3.55;;;2.38;;
10719;SDS011;5411;58.386;15.560;2024-01-06T09:05:44;4.80;;;2.60;;
10719;SDS011;5411;58.386;15.560;2024-01-06T09:08:17;4.90;;;3.05;;
10719;SDS011;5411;58.386;15.560;2024-01-06T09:10:46;6.05;;;3.53;;
10719;SDS011;5411;58.386;15.560;2024-01-06T09:13:18;4.53;;;3.20;;
10719;SDS011;5411;58.386;15.560;2024-01-06T09:15:50;6.10;;;3.53;;
10719;SDS011;5411;58.386;15.560;2024-01-06T09:18:19;6.28;;;3.13;;
10719;SDS011;5411;58.386;15.560;2024-01-06T09:20:47;5.07;;;2.88;;
10719;SDS011;5411;58.386;15.560;2024-01-06T09:23:16;5.93;;;3.85;;
10719;SDS011;5411;58.386;15.560;2024-01-06T09:25:50;5.47;;;3.42;;
10719;SDS011;5411;58.386;15.560;2024-01-06T09:28:19;4.50;;;3.28;;
10719;SDS011;5411;58.386;15.560;2024-01-06T09:30:50;4.20;;;2.70;;
10719;SDS011;5411;58.386;15.560;2024-01-06T09:33:21;3.88;;;2.97;;
10719;SDS011;5411;58.386;15.560;2024-01-06T09:35:50;3.70;;;2.95;;
10719;SDS011;5411;58.386;15.560;2024-01-06T09:38:18;4.40;;;2.97;;
10719;SDS011;5411;58.386;15.560;2024-01-06T09:40:47;7.90;;;3.15;;
10719;SDS011;5411;58.386;15.560;2024-01-06T09:43:16;3.80;;;3.47;;
10719;SDS011;5411;58.386;15.560;2024-01-06T09:45:45;5.30;;;3.33;;
10719;SDS011;5411;58.386;15.560;2024-01-06T09:48:22;3.67;;;3.30;;
10719;SDS011;5411;58.386;15.560;2024-01-06T09:50:57;6.05;;;2.58;;
10719;SDS011;5411;58.386;15.560;2024-01-06T09:53:33;3.40;;;3.00;;
10719;SDS011;5411;58.386;15.560;2024-01-06T09:56:04;5.95;;;3.13;;
10719;SDS011;5411;58.386;15.560;2024-01-06T09:58:35;4.50;;;2.72;;
10719;SDS011;5411;58.386;15.560;2024-01-06T10:01:06;6.40;;;3.35;;
10719;SDS011;5411;58.386;15.560;2024-01-06T10:03:37;4.00;;;2.75;;
10719;SDS011;5411;58.386;15.560;2024-01-06T10:06:06;13.90;;;3.08;;
10719;SDS011;5411;58.386;15.560;2024-01-06T10:08:36;4.43;;;3.03;;
10719;SDS011;5411;58.386;15.560;2024-01-06T10:11:07;5.50;;;3.33;;
10719;SDS011;5411;58.386;15.560;2024-01-06T10:13:36;9.60;;;3.20;;
10719;SDS011;5411;58.386;15.560;2024-01-06T10:16:06;4.13;;;3.20;;
10719;SDS011;5411;58.386;15.560;2024-01-06T10:18:35;7.37;;;3.60;;
10719;SDS011;5411;58.386;15.560;2024-01-06T10:21:04;5.63;;;3.00;;
10719;SDS011;5411;58.386;15.560;2024-01-06T10:23:36;3.87;;;3.30;;
10719;SDS011;5411;58.386;15.560;2024-01-06T10:26:04;3.20;;;2.90;;
10719;SDS011;5411;58.386;15.560;2024-01-06T10:28:33;4.67;;;3.47;;
10719;SDS011;5411;58.386;15.560;2024-01-06T10:31:02;3.10;;;2.50;;
10719;SDS011;5411;58.386;15.560;2024-01-06T10:33:32;5.27;;;3.37;;
10719;SDS011;5411;58.386;15.560;2024-01-06T10:36:01;7.63;;;3.10;;
10719;SDS011;5411;58.386;15.560;2024-01-06T10:38:29;9.40;;;3.20;;
10719;SDS011;5411;58.386;15.560;2024-01-06T10:41:01;3.87;;;3.40;;
10719;SDS011;5411;58.386;15.560;2024-01-06T10:43:36;5.43;;;3.13;;
10719;SDS011;5411;58.386;15.560;2024-01-06T10:46:08;6.97;;;3.83;;
10719;SDS011;5411;58.386;15.560;2024-01-06T10:48:40;7.97;;;3.43;;
10719;SDS011;5411;58.386;15.560;2024-01-06T10:51:11;7.30;;;3.33;;
10719;SDS011;5411;58.386;15.560;2024-01-06T10:53:42;3.80;;;3.30;;
10719;SDS011;5411;58.386;15.560;2024-01-06T10:56:11;6.70;;;4.20;;
10719;SDS011;5411;58.386;15.560;2024-01-06T10:58:40;4.90;;;3.47;;
10719;SDS011;5411;58.386;15.560;2024-01-06T11:01:15;8.13;;;3.40;;
10719;SDS011;5411;58.386;15.560;2024-01-06T11:03:52;10.27;;;3.73;;
10719;SDS011;5411;58.386;15.560;2024-01-06T11:06:23;8.50;;;4.87;;
10719;SDS011;5411;58.386;15.560;2024-01-06T11:08:53;9.73;;;4.53;;
10719;SDS011;5411;58.386;15.560;2024-01-06T11:11:31;6.10;;;4.43;;
10719;SDS011;5411;58.386;15.560;2024-01-06T11:14:16;6.30;;;4.50;;
10719;SDS011;5411;58.386;15.560;2024-01-06T11:16:46;8.33;;;4.73;;
10719;SDS011;5411;58.386;15.560;2024-01-06T11:22:18;9.13;;;4.40;;
10719;SDS011;5411;58.386;15.560;2024-01-06T11:24:48;7.37;;;3.97;;
10719;SDS011;5411;58.386;15.560;2024-01-06T11:27:17;6.07;;;4.20;;
10719;SDS011;5411;58.386;15.560;2024-01-06T11:29:47;9.10;;;4.13;;
10719;SDS011;5411;58.386;15.560;2024-01-06T11:32:25;6.73;;;4.67;;
10719;SDS011;5411;58.386;15.560;2024-01-06T11:35:04;7.30;;;5.00;;
10719;SDS011;5411;58.386;15.560;2024-01-06T11:37:35;5.03;;;3.90;;
10719;SDS011;5411;58.386;15.560;2024-01-06T11:40:08;6.70;;;4.43;;
10719;SDS011;5411;58.386;15.560;2024-01-06T11:42:41;6.53;;;4.10;;
10719;SDS011;5411;58.386;15.560;2024-01-06T11:45:10;6.03;;;4.60;;
10719;SDS011;5411;58.386;15.560;2024-01-06T11:47:38;9.40;;;4.77;;
10719;SDS011;5411;58.386;15.560;2024-01-06T11:50:09;7.57;;;3.57;;
10719;SDS011;5411;58.386;15.560;2024-01-06T11:52:38;5.97;;;3.80;;
10719;SDS011;5411;58.386;15.560;2024-01-06T11:55:07;4.83;;;3.87;;
10719;SDS011;5411;58.386;15.560;2024-01-06T11:57:36;6.47;;;3.80;;
10719;SDS011;5411;58.386;15.560;2024-01-06T12:00:06;5.93;;;3.53;;
10719;SDS011;5411;58.386;15.560;2024-01-06T12:02:35;6.87;;;4.03;;
10719;SDS011;5411;58.386;15.560;2024-01-06T12:05:03;7.03;;;4.07;;
10719;SDS011;5411;58.386;15.560;2024-01-06T12:07:34;4.37;;;3.33;;
10719;SDS011;5411;58.386;15.560;2024-01-06T12:10:04;8.03;;;4.23;;
10719;SDS011;5411;58.386;15.560;2024-01-06T12:12:34;4.27;;;3.53;;
10719;SDS011;5411;58.386;15.560;2024-01-06T12:15:03;5.03;;;3.77;;
10719;SDS011;5411;58.386;15.560;2024-01-06T12:17:38;5.90;;;4.00;;
10719;SDS011;5411;58.386;15.560;2024-01-06T12:20:09;4.80;;;3.60;;
10719;SDS011;5411;58.386;15.560;2024-01-06T12:22:40;6.00;;;3.83;;
10719;SDS011;5411;58.386;15.560;2024-01-06T12:25:14;5.33;;;3.63;;
10719;SDS011;5411;58.386;15.560;2024-01-06T12:27:43;6.50;;;4.00;;
10719;SDS011;5411;58.386;15.560;2024-01-06T12:30:12;5.53;;;3.63;;
10719;SDS011;5411;58.386;15.560;2024-01-06T12:32:47;5.27;;;4.00;;
10719;SDS011;5411;58.386;15.560;2024-01-06T12:35:20;6.10;;;3.70;;
10719;SDS011;5411;58.386;15.560;2024-01-06T12:37:51;4.07;;;2.87;;
10719;SDS011;5411;58.386;15.560;2024-01-06T12:40:22;5.77;;;3.87;;
10719;SDS011;5411;58.386;15.560;2024-01-06T12:42:51;5.23;;;3.47;;
10719;SDS011;5411;58.386;15.560;2024-01-06T12:45:19;7.40;;;5.13;;
10719;SDS011;5411;58.386;15.560;2024-01-06T12:47:47;6.37;;;4.10;;
10719;SDS011;5411;58.386;15.560;2024-01-06T12:50:17;3.47;;;3.20;;
10719;SDS011;5411;58.386;15.560;2024-01-06T12:52:46;3.57;;;3.20;;
10719;SDS011;5411;58.386;15.560;2024-01-06T12:55:16;5.33;;;3.60;;
10719;SDS011;5411;58.386;15.560;2024-01-06T12:57:44;4.73;;;3.60;;
10719;SDS011;5411;58.386;15.560;2024-01-06T13:00:14;6.97;;;3.63;;
10719;SDS011;5411;58.386;15.560;2024-01-06T13:02:43;7.37;;;4.10;;
10719;SDS011;5411;58.386;15.560;2024-01-06T13:05:12;5.33;;;3.60;;
10719;SDS011;5411;58.386;15.560;2024-01-06T13:07:41;7.27;;;3.60;;
10719;SDS011;5411;58.386;15.560;2024-01-06T13:10:12;4.17;;;3.73;;
10719;SDS011;5411;58.386;15.560;2024-01-06T13:12:43;5.60;;;3.93;;
10719;SDS011;5411;58.386;15.560;2024-01-06T13:15:11;4.87;;;3.70;;
10719;SDS011;5411;58.386;15.560;2024-01-06T13:17:40;6.03;;;3.97;;
10719;SDS011;5411;58.386;15.560;2024-01-06T13:20:09;6.87;;;3.53;;
10719;SDS011;5411;58.386;15.560;2024-01-06T13:22:37;5.27;;;4.00;;
10719;SDS011;5411;58.386;15.560;2024-01-06T13:25:08;4.97;;;3.60;;
10719;SDS011;5411;58.386;15.560;2024-01-06T13:27:36;5.93;;;3.47;;
10719;SDS011;5411;58.386;15.560;2024-01-06T13:30:07;5.17;;;3.63;;
10719;SDS011;5411;58.386;15.560;2024-01-06T13:32:44;5.50;;;4.07;;
10719;SDS011;5411;58.386;15.560;2024-01-06T13:35:12;5.60;;;3.73;;
10719;SDS011;5411;58.386;15.560;2024-01-06T13:37:41;7.50;;;4.27;;
10719;SDS011;5411;58.386;15.560;2024-01-06T13:40:10;6.27;;;4.10;;
10719;SDS011;5411;58.386;15.560;2024-01-06T13:42:38;9.77;;;4.00;;
10719;SDS011;5411;58.386;15.560;2024-01-06T13:45:09;6.77;;;3.63;;
10719;SDS011;5411;58.386;15.560;2024-01-06T13:47:37;5.57;;;4.07;;
10719;SDS011;5411;58.386;15.560;2024-01-06T13:50:08;7.20;;;3.80;;
10719;SDS011;5411;58.386;15.560;2024-01-06T13:52:37;6.80;;;4.20;;
10719;SDS011;5411;58.386;15.560;2024-01-06T13:55:05;5.63;;;3.97;;
10719;SDS011;5411;58.386;15.560;2024-01-06T13:57:35;9.83;;;4.73;;
10719;SDS011;5411;58.386;15.560;2024-01-06T14:00:04;8.93;;;4.50;;
10719;SDS011;5411;58.386;15.560;2024-01-06T14:02:37;6.27;;;4.20;;
10719;SDS011;5411;58.386;15.560;2024-01-06T14:05:07;6.20;;;3.73;;
10719;SDS011;5411;58.386;15.560;2024-01-06T14:07:36;6.97;;;4.27;;
10719;SDS011;5411;58.386;15.560;2024-01-06T14:10:07;7.70;;;4.30;;
10719;SDS011;5411;58.386;15.560;2024-01-06T14:12:36;6.63;;;4.83;;
10719;SDS011;5411;58.386;15.560;2024-01-06T14:15:04;5.63;;;4.23;;
10719;SDS011;5411;58.386;15.560;2024-01-06T14:17:33;7.87;;;4.50;;
10719;SDS011;5411;58.386;15.560;2024-01-06T14:20:04;7.67;;;4.40;;
10719;SDS011;5411;58.386;15.560;2024-01-06T14:22:33;6.07;;;3.87;;
10719;SDS011;5411;58.386;15.560;2024-01-06T14:25:03;9.17;;;5.17;;
10719;SDS011;5411;58.386;15.560;2024-01-06T14:27:33;5.23;;;4.03;;
10719;SDS011;5411;58.386;15.560;2024-01-06T14:30:01;10.30;;;4.70;;
10719;SDS011;5411;58.386;15.560;2024-01-06T14:32:30;6.33;;;3.57;;
10719;SDS011;5411;58.386;15.560;2024-01-06T14:34:59;7.10;;;4.80;;
10719;SDS011;5411;58.386;15.560;2024-01-06T14:37:30;5.13;;;4.63;;
10719;SDS011;5411;58.386;15.560;2024-01-06T14:39:58;5.20;;;4.10;;
10719;SDS011;5411;58.386;15.560;2024-01-06T14:42:32;7.33;;;4.00;;
10719;SDS011;5411;58.386;15.560;2024-01-06T14:45:01;7.80;;;4.10;;
10719;SDS011;5411;58.386;15.560;2024-01-06T14:47:29;5.20;;;4.00;;
10719;SDS011;5411;58.386;15.560;2024-01-06T14:49:59;4.73;;;3.90;;
10719;SDS011;5411;58.386;15.560;2024-01-06T14:52:32;6.53;;;3.90;;
10719;SDS011;5411;58.386;15.560;2024-01-06T14:55:04;6.67;;;3.60;;
10719;SDS011;5411;58.386;15.560;2024-01-06T14:57:33;9.53;;;4.00;;
10719;SDS011;5411;58.386;15.560;2024-01-06T15:00:02;6.57;;;3.73;;
10719;SDS011;5411;58.386;15.560;2024-01-06T15:02:31;4.33;;;3.70;;
10719;SDS011;5411;58.386;15.560;2024-01-06T15:05:01;5.13;;;3.37;;